Time;durP1;ratioP1;P1;durP2;ratioP2;P2;SDS_P1;SDS_P2;PMS_P1;PMS_P2;Temp;Humidity;BMP_temperature;BMP_pressure;BME280_temperature;BME280_humidity;BME280_pressure;Samples;Min_cycle;Max_cycle;Signal;HPM_P1;HPM_P2
2023/04/19 00:00:27;;;;;;;21.00;12.48;;;9.00;99.90;;;;;;5091746;28;20501;-66
2023/04/19 00:02:53;;;;;;;18.23;11.40;;;8.90;99.90;;;;;;5091756;28;20039;-66
2023/04/19 00:05:21;;;;;;;19.63;12.30;;;8.90;99.90;;;;;;5092055;28;20044;-66
2023/04/19 00:07:46;;;;;;;18.98;11.60;;;8.90;99.90;;;;;;5073380;28;20078;-66
2023/04/19 00:10:12;;;;;;;18.48;11.48;;;8.90;99.90;;;;;;5092163;28;20040;-66
2023/04/19 00:12:37;;;;;;;15.63;10.50;;;8.90;99.90;;;;;;5091600;28;20586;-66
2023/04/19 00:15:04;;;;;;;17.02;11.43;;;8.90;99.90;;;;;;5092185;28;20096;-66
2023/04/19 00:17:30;;;;;;;15.52;10.98;;;8.90;99.90;;;;;;5091956;28;20050;-66
2023/04/19 00:19:56;;;;;;;22.17;12.20;;;8.90;99.90;;;;;;5091927;28;20032;-66
2023/04/19 00:22:22;;;;;;;19.02;11.15;;;8.80;99.90;;;;;;5091537;28;20119;-66
2023/04/19 00:24:47;;;;;;;17.40;10.50;;;8.80;99.90;;;;;;5092218;28;20044;-66
2023/04/19 00:27:13;;;;;;;16.83;10.30;;;8.90;99.90;;;;;;5091154;28;20515;-66
2023/04/19 00:29:39;;;;;;;16.85;10.93;;;8.80;99.90;;;;;;5091941;28;20032;-66
2023/04/19 00:32:04;;;;;;;16.65;10.52;;;8.80;99.90;;;;;;5091661;28;20043;-66
2023/04/19 00:34:30;;;;;;;16.23;10.32;;;8.80;99.90;;;;;;5091928;28;20047;-66
2023/04/19 00:36:56;;;;;;;17.02;10.18;;;8.80;99.90;;;;;;5090885;28;20115;-66
2023/04/19 00:39:22;;;;;;;16.70;10.35;;;8.80;99.90;;;;;;5091987;28;20036;-66
2023/04/19 00:41:47;;;;;;;16.90;10.32;;;8.80;99.90;;;;;;5091645;28;20036;-66
2023/04/19 00:44:13;;;;;;;15.90;10.00;;;8.80;99.90;;;;;;5091305;28;20043;-66
2023/04/19 00:46:39;;;;;;;14.18;10.35;;;8.80;99.90;;;;;;5091621;28;20072;-66
2023/04/19 00:49:05;;;;;;;16.13;10.27;;;8.80;99.90;;;;;;5091372;28;20082;-66
2023/04/19 00:51:31;;;;;;;15.10;10.07;;;8.80;99.90;;;;;;5073287;28;20422;-65
2023/04/19 00:53:57;;;;;;;19.23;9.73;;;8.80;99.90;;;;;;5091948;28;20040;-66
2023/04/19 00:56:25;;;;;;;15.70;9.65;;;8.80;99.90;;;;;;5091828;28;20148;-66
2023/04/19 00:58:52;;;;;;;12.30;8.98;;;8.80;99.90;;;;;;5091689;28;20085;-66
2023/04/19 01:01:18;;;;;;;14.95;10.00;;;8.80;99.90;;;;;;5091266;28;20062;-66
2023/04/19 01:03:45;;;;;;;15.18;8.80;;;8.70;99.90;;;;;;5091486;28;20044;-66
2023/04/19 01:06:11;;;;;;;15.27;9.50;;;8.80;99.90;;;;;;5091480;28;20123;-66
2023/04/19 01:08:36;;;;;;;12.77;9.52;;;8.80;99.90;;;;;;5091930;28;20194;-66
2023/04/19 01:11:02;;;;;;;14.10;9.18;;;8.70;99.90;;;;;;5094764;28;20492;-66
2023/04/19 01:13:27;;;;;;;15.73;8.48;;;8.70;99.90;;;;;;5095080;28;20058;-66
2023/04/19 01:15:54;;;;;;;15.23;8.52;;;8.70;99.90;;;;;;5095267;28;20039;-66
2023/04/19 01:18:20;;;;;;;12.07;8.30;;;8.70;99.90;;;;;;5094565;28;20047;-66
2023/04/19 01:20:46;;;;;;;12.05;8.43;;;8.80;99.90;;;;;;5094811;28;20040;-66
2023/04/19 01:23:11;;;;;;;12.35;8.10;;;8.80;99.90;;;;;;5094982;28;20063;-66
2023/04/19 01:25:37;;;;;;;13.00;8.55;;;8.70;99.90;;;;;;5094829;28;20413;-66
2023/04/19 01:28:04;;;;;;;18.08;9.23;;;8.80;99.90;;;;;;5094760;28;20043;-66
2023/04/19 01:30:29;;;;;;;12.75;8.20;;;8.80;99.90;;;;;;5095522;28;20032;-66
2023/04/19 01:32:55;;;;;;;13.95;8.27;;;8.70;99.90;;;;;;5076635;28;20447;-67
2023/04/19 01:35:20;;;;;;;13.73;8.23;;;8.60;99.90;;;;;;5094341;28;20036;-66
2023/04/19 01:37:46;;;;;;;12.57;7.28;;;8.60;99.90;;;;;;5094630;28;20081;-66
2023/04/19 01:40:12;;;;;;;12.65;8.73;;;8.60;99.90;;;;;;5094794;28;20031;-66
2023/04/19 01:42:37;;;;;;;16.33;8.57;;;8.50;99.90;;;;;;5094606;28;20036;-66
2023/04/19 01:45:03;;;;;;;12.07;7.95;;;8.50;99.90;;;;;;5094408;28;20093;-66
2023/04/19 01:47:29;;;;;;;16.55;9.30;;;8.40;99.90;;;;;;5094089;28;20036;-66
2023/04/19 01:49:55;;;;;;;13.98;8.25;;;8.50;99.90;;;;;;5105008;22;20054;-64
2023/04/19 01:52:20;;;;;;;15.38;8.68;;;8.40;99.90;;;;;;5080121;28;20080;-64
2023/04/19 01:54:46;;;;;;;12.88;7.45;;;8.40;99.90;;;;;;5086003;28;20036;-64
2023/04/19 01:57:11;;;;;;;15.45;8.77;;;8.40;99.90;;;;;;5094500;28;20043;-64
2023/04/19 01:59:37;;;;;;;12.82;8.43;;;8.40;99.90;;;;;;5093888;28;20084;-64
2023/04/19 02:02:05;;;;;;;14.25;8.27;;;8.40;99.90;;;;;;5049801;28;20083;-64
2023/04/19 02:04:33;;;;;;;14.80;8.38;;;8.40;99.90;;;;;;5072415;28;20044;-64
2023/04/19 02:06:58;;;;;;;14.65;8.02;;;8.40;99.90;;;;;;5073572;28;20117;-64
2023/04/19 02:09:24;;;;;;;13.82;8.80;;;8.40;99.90;;;;;;5074030;28;20498;-64
2023/04/19 02:11:49;;;;;;;13.10;8.43;;;8.30;99.90;;;;;;5073738;28;20406;-64
2023/04/19 02:14:15;;;;;;;13.13;8.38;;;8.30;99.90;;;;;;5055966;28;20036;-64
2023/04/19 02:16:40;;;;;;;15.65;8.68;;;8.30;99.90;;;;;;5073758;28;20043;-64
2023/04/19 02:19:06;;;;;;;13.25;8.18;;;8.20;99.90;;;;;;5073995;28;20041;-64
2023/04/19 02:21:32;;;;;;;14.88;8.57;;;8.20;99.90;;;;;;5073279;28;20101;-64
2023/04/19 02:23:57;;;;;;;14.38;8.52;;;8.20;99.90;;;;;;5073326;28;20041;-64
2023/04/19 02:26:23;;;;;;;12.77;7.90;;;8.20;99.90;;;;;;5073751;28;20053;-64
2023/04/19 02:28:51;;;;;;;14.27;7.78;;;8.10;99.90;;;;;;5073206;28;20041;-64
2023/04/19 02:31:17;;;;;;;13.77;8.25;;;8.10;99.90;;;;;;5073259;28;20029;-64
2023/04/19 02:33:43;;;;;;;12.48;8.00;;;8.10;99.90;;;;;;5073304;28;20579;-64
2023/04/19 02:36:09;;;;;;;12.52;7.63;;;8.10;99.90;;;;;;5055936;28;20036;-64
2023/04/19 02:38:34;;;;;;;12.55;8.27;;;8.10;99.90;;;;;;5055447;28;20072;-64
2023/04/19 02:41:03;;;;;;;12.10;7.55;;;8.00;99.90;;;;;;5073051;28;20047;-64
2023/04/19 02:43:29;;;;;;;14.90;9.25;;;8.00;99.90;;;;;;5073171;28;20482;-64
2023/04/19 02:45:54;;;;;;;13.88;8.63;;;8.00;99.90;;;;;;5055654;28;20367;-64
2023/04/19 02:48:20;;;;;;;13.63;8.40;;;7.90;99.90;;;;;;5073082;28;20047;-64
2023/04/19 02:50:46;;;;;;;11.75;8.15;;;7.90;99.90;;;;;;5072901;28;20036;-64
2023/04/19 02:53:11;;;;;;;12.18;7.43;;;7.90;99.90;;;;;;5073241;28;20032;-64
2023/04/19 02:55:37;;;;;;;13.93;8.10;;;7.80;99.90;;;;;;5073188;28;20127;-64
2023/04/19 02:58:02;;;;;;;11.98;7.95;;;7.80;99.90;;;;;;5054992;28;20044;-64
2023/04/19 03:00:28;;;;;;;13.50;8.10;;;7.80;99.90;;;;;;5054895;28;20083;-64
2023/04/19 03:02:55;;;;;;;14.70;8.48;;;7.80;99.90;;;;;;5054740;28;20052;-64
2023/04/19 03:05:21;;;;;;;13.27;7.88;;;7.80;99.90;;;;;;5073069;28;20490;-64
2023/04/19 03:07:46;;;;;;;11.73;7.90;;;7.70;99.90;;;;;;5072362;28;20036;-64
2023/04/19 03:10:12;;;;;;;14.63;9.50;;;7.70;99.90;;;;;;5072544;28;20086;-64
2023/04/19 03:12:38;;;;;;;12.68;7.93;;;7.70;99.90;;;;;;5072461;28;20036;-64
2023/04/19 03:15:04;;;;;;;13.38;8.57;;;7.60;99.90;;;;;;5072623;28;20037;-64
2023/04/19 03:17:29;;;;;;;15.95;8.27;;;7.60;99.90;;;;;;5072021;28;20831;-64
2023/04/19 03:19:55;;;;;;;13.70;8.55;;;7.50;99.90;;;;;;5072432;28;20040;-64
2023/04/19 03:22:21;;;;;;;15.00;8.45;;;7.50;99.90;;;;;;5054493;28;20040;-64
2023/04/19 03:24:46;;;;;;;15.20;9.15;;;7.40;99.90;;;;;;5072554;28;20037;-64
2023/04/19 03:27:12;;;;;;;13.48;9.20;;;7.30;99.90;;;;;;5072617;28;20147;-64
2023/04/19 03:29:37;;;;;;;15.68;8.75;;;7.30;99.90;;;;;;5072298;28;20105;-64
2023/04/19 03:32:03;;;;;;;14.70;9.32;;;7.20;99.90;;;;;;5071918;28;20040;-64
2023/04/19 03:34:28;;;;;;;16.20;9.00;;;7.20;99.90;;;;;;5072405;28;20084;-64
2023/04/19 03:36:54;;;;;;;15.90;9.02;;;7.20;99.90;;;;;;5054425;28;20672;-64
2023/04/19 03:39:20;;;;;;;15.68;9.32;;;7.20;99.90;;;;;;5072397;28;20123;-64
2023/04/19 03:41:46;;;;;;;15.23;9.48;;;7.10;99.90;;;;;;5072037;28;20040;-64
2023/04/19 03:44:11;;;;;;;15.02;8.57;;;7.10;99.90;;;;;;5072152;28;20041;-64
2023/04/19 03:46:37;;;;;;;13.77;9.38;;;7.00;99.90;;;;;;5072309;28;20548;-64
2023/04/19 03:49:02;;;;;;;16.67;9.27;;;7.00;99.90;;;;;;5071944;28;20040;-64
2023/04/19 03:51:28;;;;;;;13.70;9.07;;;6.90;99.90;;;;;;5071801;28;20560;-64
2023/04/19 03:53:53;;;;;;;16.10;9.57;;;6.90;99.90;;;;;;5072127;28;20068;-64
2023/04/19 03:56:19;;;;;;;15.85;9.20;;;6.90;99.90;;;;;;5072212;28;20040;-64
2023/04/19 03:58:45;;;;;;;14.98;9.15;;;6.80;99.90;;;;;;5071280;28;20044;-64
2023/04/19 04:01:20;;;;;;;13.30;9.38;;;6.80;99.90;;;;;;5067876;28;20044;-64
2023/04/19 04:03:46;;;;;;;15.90;8.88;;;6.80;99.90;;;;;;5064395;28;20037;-64
2023/04/19 04:06:12;;;;;;;16.50;10.32;;;6.70;99.90;;;;;;5070852;28;20474;-64
2023/04/19 04:08:38;;;;;;;15.00;9.30;;;6.70;99.90;;;;;;5071932;28;20394;-64
2023/04/19 04:11:03;;;;;;;16.90;9.55;;;6.70;99.90;;;;;;5071352;28;20028;-64
2023/04/19 04:13:29;;;;;;;15.48;8.77;;;6.70;99.90;;;;;;5071786;28;20062;-64
2023/04/19 04:15:54;;;;;;;17.75;8.88;;;6.60;99.90;;;;;;5071579;28;20037;-64
2023/04/19 04:18:20;;;;;;;14.82;8.70;;;6.60;99.90;;;;;;5072025;28;20098;-64
2023/04/19 04:20:46;;;;;;;15.18;8.85;;;6.60;99.90;;;;;;5071356;28;20501;-64
2023/04/19 04:23:13;;;;;;;13.00;8.63;;;6.60;99.90;;;;;;5071833;28;20071;-64
2023/04/19 04:25:38;;;;;;;13.55;8.50;;;6.60;99.90;;;;;;5071795;28;20108;-64
2023/04/19 04:28:04;;;;;;;15.95;8.93;;;6.50;99.90;;;;;;5071614;28;20501;-64
2023/04/19 04:30:30;;;;;;;13.43;7.85;;;6.50;99.90;;;;;;5053577;28;20449;-64
2023/04/19 04:32:57;;;;;;;15.32;8.50;;;6.50;99.90;;;;;;5053534;28;20122;-64
2023/04/19 04:35:23;;;;;;;12.35;7.72;;;6.50;99.90;;;;;;5053894;28;20094;-64
2023/04/19 04:37:49;;;;;;;14.75;8.30;;;6.50;99.90;;;;;;5071750;28;20044;-64
2023/04/19 04:40:15;;;;;;;13.02;8.30;;;6.40;99.90;;;;;;5071112;28;20379;-64
2023/04/19 04:42:41;;;;;;;13.27;7.90;;;6.40;99.90;;;;;;5071831;28;20040;-63
2023/04/19 04:45:09;;;;;;;12.45;7.80;;;6.30;99.90;;;;;;5075167;28;20080;-64
2023/04/19 04:47:35;;;;;;;10.65;7.22;;;6.30;99.90;;;;;;5075569;28;20041;-64
2023/04/19 04:50:02;;;;;;;13.00;8.00;;;6.20;99.90;;;;;;5075386;28;20078;-64
2023/04/19 04:52:28;;;;;;;12.32;7.60;;;6.20;99.90;;;;;;5075370;28;20032;-64
2023/04/19 04:54:54;;;;;;;11.27;7.30;;;6.20;99.90;;;;;;5075266;28;20416;-64
2023/04/19 04:57:19;;;;;;;11.73;7.22;;;6.20;99.90;;;;;;5075275;28;20116;-63
2023/04/19 04:59:46;;;;;;;13.63;7.68;;;6.20;99.90;;;;;;5057286;28;20265;-63
2023/04/19 05:02:13;;;;;;;9.98;6.47;;;6.10;99.90;;;;;;5057083;28;20120;-63
2023/04/19 05:04:38;;;;;;;12.02;7.63;;;6.10;99.90;;;;;;5074819;28;20086;-63
2023/04/19 05:07:04;;;;;;;11.32;7.22;;;6.10;99.90;;;;;;5075250;28;20033;-63
2023/04/19 05:09:29;;;;;;;11.43;6.82;;;6.10;99.90;;;;;;5074835;28;20120;-62
2023/04/19 05:11:55;;;;;;;10.90;6.88;;;6.10;99.90;;;;;;5074658;28;20119;-63
2023/04/19 05:14:21;;;;;;;14.02;7.82;;;6.10;99.90;;;;;;5074653;28;20039;-63
2023/04/19 05:16:46;;;;;;;12.68;7.80;;;6.10;99.90;;;;;;5074954;28;20151;-62
2023/04/19 05:19:12;;;;;;;12.40;6.95;;;6.10;99.90;;;;;;5075056;28;20521;-63
2023/04/19 05:21:37;;;;;;;14.40;7.90;;;6.10;99.90;;;;;;5074733;28;20676;-63
2023/04/19 05:24:03;;;;;;;15.48;8.00;;;6.10;99.90;;;;;;5057170;28;20378;-63
2023/04/19 05:26:29;;;;;;;13.20;7.32;;;6.10;99.90;;;;;;5074745;28;20157;-63
2023/04/19 05:28:55;;;;;;;10.50;7.15;;;6.10;99.90;;;;;;5074898;28;20516;-63
2023/04/19 05:31:21;;;;;;;11.02;7.40;;;6.20;99.90;;;;;;5074425;28;20036;-63
2023/04/19 05:33:46;;;;;;;9.90;6.35;;;6.20;99.90;;;;;;5056984;28;20437;-63
2023/04/19 05:36:12;;;;;;;10.77;6.72;;;6.20;99.90;;;;;;5074722;28;20064;-63
2023/04/19 05:38:37;;;;;;;10.73;6.25;;;6.20;99.90;;;;;;5074655;28;20095;-63
2023/04/19 05:41:04;;;;;;;10.90;7.15;;;6.30;99.90;;;;;;5074067;28;20048;-63
2023/04/19 05:43:29;;;;;;;12.18;6.85;;;6.30;99.90;;;;;;5074800;28;20113;-63
2023/04/19 05:45:55;;;;;;;11.55;6.68;;;6.30;99.90;;;;;;5074651;28;20489;-63
2023/04/19 05:48:21;;;;;;;9.88;6.93;;;6.40;99.90;;;;;;5074308;28;20036;-63
2023/04/19 05:50:46;;;;;;;8.98;6.10;;;6.40;99.90;;;;;;5056007;28;20036;-63
2023/04/19 05:53:12;;;;;;;9.52;6.13;;;6.50;99.90;;;;;;5074462;28;20093;-63
2023/04/19 05:55:37;;;;;;;11.27;6.70;;;6.50;99.90;;;;;;5073401;28;20485;-63
2023/04/19 05:58:03;;;;;;;8.20;5.82;;;6.60;99.90;;;;;;5074437;28;20051;-63
2023/04/19 06:00:29;;;;;;;8.23;5.60;;;6.60;99.90;;;;;;5074288;28;20044;-63
2023/04/19 06:02:54;;;;;;;8.23;5.22;;;6.60;99.90;;;;;;5073685;28;20047;-63
2023/04/19 06:05:20;;;;;;;9.77;5.15;;;6.70;99.90;;;;;;5073373;28;20036;-63
2023/04/19 06:07:46;;;;;;;9.20;5.72;;;6.70;99.90;;;;;;5074040;28;20145;-63
2023/04/19 06:10:12;;;;;;;10.27;5.70;;;6.90;99.90;;;;;;5073760;28;20032;-63
2023/04/19 06:12:38;;;;;;;9.63;5.10;;;6.90;99.90;;;;;;5073565;28;20054;-62
2023/04/19 06:15:04;;;;;;;6.03;4.45;;;7.00;99.90;;;;;;5073889;28;20040;-63
2023/04/19 06:17:30;;;;;;;7.80;4.80;;;7.00;99.90;;;;;;5056324;28;20058;-63
2023/04/19 06:19:56;;;;;;;10.15;5.25;;;7.10;99.90;;;;;;5073721;28;20486;-63
2023/04/19 06:22:21;;;;;;;9.82;4.80;;;7.20;99.90;;;;;;5073173;28;20051;-63
2023/04/19 06:24:47;;;;;;;8.20;5.03;;;7.30;99.90;;;;;;5055724;28;20119;-63
2023/04/19 06:27:15;;;;;;;7.85;4.90;;;7.40;99.90;;;;;;5073410;28;20068;-63
2023/04/19 06:29:40;;;;;;;9.30;4.68;;;7.40;99.90;;;;;;5073022;28;20498;-63
2023/04/19 06:32:06;;;;;;;9.65;4.88;;;7.50;99.90;;;;;;5055108;28;20048;-63
2023/04/19 06:34:32;;;;;;;8.02;4.07;;;7.60;99.90;;;;;;5056109;28;20037;-63
2023/04/19 06:36:57;;;;;;;8.98;4.35;;;7.80;99.90;;;;;;5073097;28;20482;-63
2023/04/19 06:39:23;;;;;;;6.63;3.95;;;8.00;99.90;;;;;;5073333;28;20517;-63
2023/04/19 06:41:48;;;;;;;6.25;3.97;;;8.10;99.90;;;;;;5072921;28;20067;-63
2023/04/19 06:44:14;;;;;;;7.32;4.20;;;8.10;99.90;;;;;;5073565;28;20040;-63
2023/04/19 06:46:39;;;;;;;6.43;4.57;;;8.10;99.90;;;;;;5072626;28;20085;-63
2023/04/19 06:49:05;;;;;;;8.50;4.40;;;8.10;99.90;;;;;;5073270;28;20048;-63
2023/04/19 06:51:32;;;;;;;6.85;3.67;;;8.20;99.90;;;;;;5072757;28;20040;-63
2023/04/19 06:53:57;;;;;;;7.53;4.18;;;8.30;99.90;;;;;;5072245;28;20040;-63
2023/04/19 06:56:46;;;;;;;5.88;3.47;;;8.30;99.90;;;;;;5072896;28;20401;-63
2023/04/19 06:59:17;;;;;;;5.75;3.78;;;8.40;99.90;;;;;;5073263;28;20041;-63
2023/04/19 07:01:44;;;;;;;6.80;3.75;;;8.40;99.90;;;;;;5072725;28;20055;-63
2023/04/19 07:04:10;;;;;;;8.18;3.70;;;8.50;99.90;;;;;;5072423;28;20583;-63
2023/04/19 07:06:37;;;;;;;7.05;2.85;;;8.60;99.90;;;;;;5071767;28;20037;-63
2023/04/19 07:09:04;;;;;;;6.22;3.47;;;8.60;99.90;;;;;;5072961;28;20032;-63
2023/04/19 07:11:30;;;;;;;6.53;3.10;;;8.70;99.90;;;;;;5071668;28;20555;-63
2023/04/19 07:13:56;;;;;;;5.72;3.28;;;8.80;99.90;;;;;;5072749;28;20068;-63
2023/04/19 07:16:22;;;;;;;4.65;3.08;;;8.80;99.90;;;;;;5072756;28;20037;-63
2023/04/19 07:18:47;;;;;;;6.85;3.28;;;9.00;99.90;;;;;;5072646;28;20514;-64
2023/04/19 07:21:13;;;;;;;5.22;3.38;;;9.10;99.90;;;;;;5071771;28;20415;-63
2023/04/19 07:23:39;;;;;;;5.55;2.92;;;9.20;99.90;;;;;;5072596;28;20055;-63
2023/04/19 07:26:04;;;;;;;4.18;2.28;;;9.40;99.90;;;;;;5054456;28;20055;-63
2023/04/19 07:28:30;;;;;;;7.63;3.25;;;9.40;99.90;;;;;;5072089;28;20120;-63
2023/04/19 07:30:56;;;;;;;3.78;3.10;;;9.50;99.90;;;;;;5072082;28;20032;-63
2023/04/19 07:33:26;;;;;;;4.93;3.20;;;9.50;99.90;;;;;;5072215;28;20037;-63
2023/04/19 07:35:51;;;;;;;4.82;3.13;;;9.60;99.90;;;;;;5072593;28;20128;-63
2023/04/19 07:38:18;;;;;;;5.82;3.22;;;9.60;99.90;;;;;;5072531;28;20119;-63
2023/04/19 07:40:43;;;;;;;3.92;2.53;;;9.70;99.70;;;;;;5071877;28;20047;-63
2023/04/19 07:43:09;;;;;;;4.60;2.85;;;9.70;99.80;;;;;;5072267;28;20037;-63
2023/04/19 07:45:34;;;;;;;5.05;2.55;;;9.80;99.90;;;;;;5072210;28;20063;-63
2023/04/19 07:48:00;;;;;;;4.35;2.97;;;9.90;99.90;;;;;;5071991;28;20097;-63
2023/04/19 07:50:26;;;;;;;4.32;2.70;;;10.00;98.70;;;;;;5082596;22;20211;-65
2023/04/19 07:52:51;;;;;;;5.95;2.50;;;10.00;99.20;;;;;;5072159;28;20110;-66
2023/04/19 07:55:17;;;;;;;4.00;2.42;;;10.00;98.10;;;;;;5080374;28;20063;-67
2023/04/19 07:57:47;;;;;;;6.75;2.58;;;10.10;97.00;;;;;;5073666;28;20497;-66
2023/04/19 08:00:17;;;;;;;3.35;2.13;;;10.20;96.30;;;;;;5089884;28;20119;-66
2023/04/19 08:02:44;;;;;;;6.05;3.10;;;10.20;94.10;;;;;;5070970;28;20060;-66
2023/04/19 08:05:10;;;;;;;4.95;2.65;;;10.30;94.80;;;;;;5072236;28;20041;-65
2023/04/19 08:07:35;;;;;;;11.02;3.17;;;10.40;93.40;;;;;;5071789;28;20040;-65
2023/04/19 08:10:01;;;;;;;5.45;3.08;;;10.50;93.60;;;;;;5071537;28;20113;-65
2023/04/19 08:12:26;;;;;;;6.18;2.90;;;10.60;94.70;;;;;;5071357;28;20131;-65
2023/04/19 08:14:52;;;;;;;4.15;2.55;;;10.70;93.80;;;;;;5071958;28;20040;-65
2023/04/19 08:17:20;;;;;;;4.05;2.80;;;10.90;93.00;;;;;;5070925;28;20042;-65
2023/04/19 08:19:48;;;;;;;3.50;2.42;;;10.90;91.20;;;;;;5071711;28;20478;-65
2023/04/19 08:22:15;;;;;;;3.78;2.58;;;10.80;90.80;;;;;;5071385;28;20536;-66
2023/04/19 08:24:41;;;;;;;5.03;2.35;;;10.80;87.70;;;;;;5071894;28;20429;-65
2023/04/19 08:27:08;;;;;;;5.43;3.08;;;10.70;86.20;;;;;;5071792;28;20032;-66
2023/04/19 08:29:33;;;;;;;4.28;2.88;;;10.70;83.60;;;;;;5071610;28;20049;-66
2023/04/19 08:32:00;;;;;;;5.20;3.22;;;10.80;86.40;;;;;;5071229;28;20033;-66
2023/04/19 08:34:26;;;;;;;5.30;3.13;;;10.90;85.60;;;;;;5071611;28;20044;-66
2023/04/19 08:36:52;;;;;;;7.72;3.13;;;10.90;83.30;;;;;;5071645;28;20048;-66
2023/04/19 08:39:17;;;;;;;7.43;3.45;;;11.00;83.90;;;;;;5053637;28;20048;-66
2023/04/19 08:41:43;;;;;;;8.90;3.90;;;11.10;81.30;;;;;;5071352;28;20107;-66
2023/04/19 08:44:13;;;;;;;4.28;2.60;;;11.20;80.20;;;;;;5071581;28;20226;-65
2023/04/19 08:46:40;;;;;;;5.43;3.20;;;11.30;79.70;;;;;;5071729;28;20045;-66
2023/04/19 08:49:07;;;;;;;5.55;3.63;;;11.30;74.60;;;;;;5071637;28;20094;-66
2023/04/19 08:51:33;;;;;;;6.05;3.50;;;11.40;74.30;;;;;;5071079;28;20037;-66
2023/04/19 08:54:02;;;;;;;5.55;3.17;;;11.50;73.00;;;;;;5071469;28;20461;-66
2023/04/19 08:56:29;;;;;;;5.97;2.50;;;11.60;74.60;;;;;;5071506;28;20029;-66
2023/04/19 08:58:55;;;;;;;6.82;3.28;;;11.60;72.40;;;;;;5071306;28;20044;-66
2023/04/19 09:01:20;;;;;;;7.47;3.25;;;11.60;71.40;;;;;;5071335;28;20036;-65
2023/04/19 09:03:46;;;;;;;6.00;3.20;;;11.60;71.30;;;;;;5071577;28;20036;-66
2023/04/19 09:06:12;;;;;;;5.00;3.53;;;11.70;70.80;;;;;;5071555;28;20387;-65
2023/04/19 09:08:38;;;;;;;5.10;2.70;;;11.80;71.00;;;;;;5071097;28;20123;-65
2023/04/19 09:11:04;;;;;;;4.35;2.72;;;11.80;70.30;;;;;;5071018;28;20037;-65
2023/04/19 09:13:31;;;;;;;5.63;2.90;;;11.90;67.10;;;;;;5071191;28;20044;-65
2023/04/19 09:15:59;;;;;;;5.50;3.17;;;12.00;68.30;;;;;;5071145;28;20037;-65
2023/04/19 09:18:25;;;;;;;5.13;2.85;;;12.00;69.00;;;;;;5071003;28;20063;-65
2023/04/19 09:20:56;;;;;;;4.10;2.72;;;12.00;64.40;;;;;;5070936;28;20032;-66
2023/04/19 09:23:24;;;;;;;7.57;2.97;;;12.00;66.10;;;;;;5071327;28;20098;-65
2023/04/19 09:25:56;;;;;;;5.22;2.50;;;12.00;64.80;;;;;;5071147;28;20044;-66
2023/04/19 09:28:22;;;;;;;3.78;2.28;;;12.20;65.90;;;;;;5070538;28;20098;-66
2023/04/19 09:30:49;;;;;;;8.35;3.03;;;12.20;62.80;;;;;;5052933;28;20495;-66
2023/04/19 09:33:31;;;;;;;6.80;2.80;;;12.20;63.70;;;;;;5054732;28;20151;-66
2023/04/19 09:35:58;;;;;;;4.20;2.90;;;12.40;64.50;;;;;;5054757;28;20051;-66
2023/04/19 09:38:23;;;;;;;4.43;2.70;;;12.60;64.40;;;;;;5054385;28;20045;-66
2023/04/19 09:40:49;;;;;;;3.28;2.13;;;12.60;62.10;;;;;;5053827;28;20045;-66
2023/04/19 09:43:23;;;;;;;5.85;2.55;;;12.60;62.60;;;;;;5054222;28;20080;-66
2023/04/19 09:45:49;;;;;;;4.57;2.92;;;12.50;61.60;;;;;;5054498;28;20552;-66
2023/04/19 09:48:15;;;;;;;5.45;2.33;;;12.70;63.50;;;;;;5054478;28;20041;-66
2023/04/19 09:50:57;;;;;;;3.75;2.47;;;12.80;62.00;;;;;;5053919;28;20037;-66
2023/04/19 09:53:24;;;;;;;3.75;2.38;;;12.90;62.70;;;;;;5036443;28;20379;-66
2023/04/19 09:55:50;;;;;;;3.38;2.00;;;12.90;63.90;;;;;;5054532;28;20032;-66
2023/04/19 09:58:19;;;;;;;3.45;2.03;;;13.00;65.00;;;;;;5054327;28;20068;-66
2023/04/19 10:00:46;;;;;;;3.92;2.13;;;13.00;63.60;;;;;;5053917;28;20064;-65
2023/04/19 10:03:15;;;;;;;4.38;2.45;;;12.90;62.50;;;;;;5054208;28;20056;-65
2023/04/19 10:05:41;;;;;;;4.38;2.50;;;12.90;61.50;;;;;;5054078;28;20040;-65
2023/04/19 10:08:08;;;;;;;3.00;2.60;;;12.90;64.20;;;;;;5053567;28;20521;-65
2023/04/19 10:10:35;;;;;;;5.25;2.20;;;12.90;62.50;;;;;;5053862;28;20132;-65
2023/04/19 10:13:03;;;;;;;3.97;2.30;;;13.10;63.70;;;;;;5053656;28;20037;-65
2023/04/19 10:15:30;;;;;;;2.97;2.08;;;13.10;61.70;;;;;;5053633;28;20079;-65
2023/04/19 10:17:56;;;;;;;3.95;2.03;;;13.10;62.00;;;;;;5053456;28;20037;-66
2023/04/19 10:20:33;;;;;;;3.88;2.30;;;13.10;59.60;;;;;;5053856;28;20120;-65
2023/04/19 10:22:59;;;;;;;4.30;2.50;;;13.10;56.30;;;;;;5053700;28;20072;-65
2023/04/19 10:25:29;;;;;;;2.42;1.85;;;13.10;56.20;;;;;;5053904;28;20068;-65
2023/04/19 10:27:56;;;;;;;8.50;3.30;;;13.20;55.00;;;;;;5053678;28;20061;-65
2023/04/19 10:30:23;;;;;;;3.35;2.15;;;13.20;54.50;;;;;;5053422;28;20044;-65
2023/04/19 10:32:54;;;;;;;6.82;2.13;;;13.30;54.70;;;;;;5053248;28;20502;-65
2023/04/19 10:35:24;;;;;;;2.70;2.00;;;13.40;56.00;;;;;;5035724;28;20112;-64
2023/04/19 10:38:05;;;;;;;4.60;2.33;;;13.50;54.30;;;;;;5053537;28;20159;-65
2023/04/19 10:40:56;;;;;;;3.63;1.73;;;13.50;52.30;;;;;;5053125;28;20079;-65
2023/04/19 10:43:34;;;;;;;3.05;2.10;;;13.50;52.60;;;;;;5053416;28;20076;-66
2023/04/19 10:46:15;;;;;;;3.60;2.10;;;13.60;54.30;;;;;;5053675;28;20163;-66
2023/04/19 10:48:53;;;;;;;3.63;1.70;;;13.70;53.60;;;;;;5053275;28;20037;-66
2023/04/19 10:51:33;;;;;;;2.95;2.03;;;13.70;53.10;;;;;;5035053;28;20095;-65
2023/04/19 10:54:06;;;;;;;4.25;2.35;;;13.70;51.10;;;;;;5053489;28;20037;-65
2023/04/19 10:56:35;;;;;;;3.10;2.03;;;13.80;52.00;;;;;;5053359;28;20048;-65
2023/04/19 10:59:10;;;;;;;3.65;1.88;;;13.80;53.30;;;;;;5052738;28;20080;-65
2023/04/19 11:01:45;;;;;;;2.72;1.67;;;13.80;52.40;;;;;;5052741;28;20491;-66
2023/04/19 11:04:18;;;;;;;3.17;1.58;;;13.60;50.70;;;;;;5053160;28;20068;-64
2023/04/19 11:06:50;;;;;;;2.47;1.73;;;13.60;51.20;;;;;;5052726;28;20120;-66
2023/04/19 11:09:31;;;;;;;7.05;1.92;;;13.60;52.40;;;;;;5052421;28;20053;-65
2023/04/19 11:12:07;;;;;;;2.92;1.70;;;13.70;53.30;;;;;;5052656;28;20037;-65
2023/04/19 11:14:59;;;;;;;2.30;1.70;;;13.90;50.90;;;;;;5053091;28;20072;-66
2023/04/19 11:17:31;;;;;;;3.20;1.48;;;13.80;50.80;;;;;;5052953;28;20406;-65
2023/04/19 11:19:57;;;;;;;2.35;1.85;;;13.90;52.20;;;;;;5052766;28;20110;-66
2023/04/19 11:22:35;;;;;;;2.35;2.05;;;13.90;50.90;;;;;;5052408;28;20037;-65
2023/04/19 11:25:15;;;;;;;2.67;2.08;;;14.00;50.20;;;;;;5052601;28;20506;-65
2023/04/19 11:27:43;;;;;;;3.15;1.67;;;14.00;51.30;;;;;;5052574;28;20045;-65
2023/04/19 11:30:12;;;;;;;3.40;1.73;;;14.10;52.50;;;;;;5052439;28;20041;-65
2023/04/19 11:32:44;;;;;;;3.08;1.98;;;14.10;51.60;;;;;;5052188;28;20033;-65
2023/04/19 11:35:10;;;;;;;3.47;1.90;;;14.20;52.00;;;;;;5052431;28;20059;-65
2023/04/19 11:37:37;;;;;;;2.25;1.80;;;14.30;51.80;;;;;;5052668;28;20033;-66
2023/04/19 11:40:05;;;;;;;2.97;2.10;;;14.20;52.90;;;;;;5052054;28;20483;-66
2023/04/19 11:42:31;;;;;;;3.35;1.88;;;14.10;53.20;;;;;;5052281;28;20082;-66
2023/04/19 11:44:58;;;;;;;4.93;2.20;;;14.10;53.00;;;;;;5052389;28;20052;-66
2023/04/19 11:47:25;;;;;;;3.70;2.20;;;14.10;54.40;;;;;;5051915;28;20051;-66
2023/04/19 11:49:51;;;;;;;4.38;2.20;;;14.10;54.70;;;;;;5051610;28;20040;-66
2023/04/19 11:52:24;;;;;;;2.65;2.08;;;14.10;55.40;;;;;;5051318;28;20037;-66
2023/04/19 11:54:51;;;;;;;3.55;2.30;;;14.00;54.40;;;;;;5051861;28;20120;-65
2023/04/19 11:57:27;;;;;;;5.32;2.63;;;13.90;55.10;;;;;;5052235;28;20047;-66
2023/04/19 12:00:06;;;;;;;4.22;2.72;;;14.10;57.70;;;;;;5051703;28;20599;-65
2023/04/19 12:02:37;;;;;;;3.47;2.83;;;14.10;55.60;;;;;;5052076;28;20044;-65
2023/04/19 12:05:10;;;;;;;4.60;2.42;;;14.10;55.80;;;;;;5052080;28;20029;-65
2023/04/19 12:07:36;;;;;;;5.10;2.88;;;14.20;56.60;;;;;;5052046;28;20041;-66
2023/04/19 12:10:11;;;;;;;2.95;2.47;;;14.20;58.70;;;;;;5051724;28;20033;-66
2023/04/19 12:12:38;;;;;;;7.13;3.00;;;14.30;56.20;;;;;;5051520;28;20033;-66
2023/04/19 12:15:05;;;;;;;5.85;2.88;;;14.30;55.30;;;;;;5051824;28;20093;-66
2023/04/19 12:17:31;;;;;;;7.57;2.72;;;14.40;56.20;;;;;;5051830;28;20482;-66
2023/04/19 12:19:56;;;;;;;3.70;2.80;;;14.40;54.90;;;;;;5051553;28;20044;-64
2023/04/19 12:22:24;;;;;;;5.03;3.20;;;14.50;54.70;;;;;;5051646;28;20122;-66
2023/04/19 12:24:52;;;;;;;5.32;2.80;;;14.40;55.90;;;;;;5051763;28;20044;-66
2023/04/19 12:27:17;;;;;;;4.30;3.35;;;14.30;58.30;;;;;;5051663;28;20064;-65
2023/04/19 12:29:43;;;;;;;3.67;2.65;;;14.20;59.50;;;;;;5051780;28;20126;-65
2023/04/19 12:32:09;;;;;;;4.50;3.25;;;14.20;61.10;;;;;;5051405;28;20037;-65
2023/04/19 12:34:35;;;;;;;4.88;3.22;;;14.20;62.20;;;;;;5051765;28;20064;-66
2023/04/19 12:37:03;;;;;;;5.13;2.80;;;14.20;62.70;;;;;;5051349;28;20507;-66
2023/04/19 12:39:29;;;;;;;6.25;3.50;;;14.20;62.30;;;;;;5051569;28;20080;-66
2023/04/19 12:41:55;;;;;;;7.47;4.18;;;14.10;64.90;;;;;;5051082;28;20033;-66
2023/04/19 12:44:21;;;;;;;5.65;3.13;;;14.10;64.10;;;;;;5051311;28;20037;-65
2023/04/19 12:46:46;;;;;;;4.45;3.20;;;14.30;65.90;;;;;;5051668;28;20083;-65